Terminal Aerodrome Forecast
Issued by NWS

Home | Current Version | Previous Version | Text Only | Print | Product List | Glossary On
Versions: 1 2 3 4 5 6 7 8 9 10 11 12 13 14 15 16 17 18 19 20
000
FTUS41 KALY 012342 AAG
TAFPSF
TAF AMD
KPSF 012342Z 0200/0224 12007KT P6SM VCSH OVC015
      TEMPO 0200/0203 3SM -DZ BR OVC008
     FM020300 12007KT P6SM VCSH OVC010
      TEMPO 0203/0206 2SM -DZ OVC005
     FM020600 12005KT 3SM BR OVC009
     FM021300 10005KT 6SM -RA OVC009
     FM022000 21006KT P6SM VCSH OVC015
     FM022300 27005KT P6SM BKN015=

USA.gov is the U.S. government's official web portal to all federal, state and local government web resources and services.